Time;durP1;ratioP1;P1;durP2;ratioP2;P2;SDS_P1;SDS_P2;PMS_P1;PMS_P2;Temp;Humidity;BMP_temperature;BMP_pressure;BME280_temperature;BME280_humidity;BME280_pressure;Samples;Min_cycle;Max_cycle;Signal;HPM_P1;HPM_P2
2023/04/02 00:00:09;;;;;;;11.00;7.43;;;8.30;99.90;;;;;;5076427;28;20036;-73
2023/04/02 00:02:57;;;;;;;9.35;7.70;;;8.20;99.90;;;;;;5094664;28;20082;-73
2023/04/02 00:05:33;;;;;;;11.48;6.60;;;8.00;99.90;;;;;;5094021;28;20027;-73
2023/04/02 00:08:22;;;;;;;8.25;6.80;;;8.00;99.90;;;;;;5094246;28;20031;-73
2023/04/02 00:10:54;;;;;;;8.20;6.70;;;7.80;99.90;;;;;;5094125;28;20056;-73
2023/04/02 00:13:30;;;;;;;10.48;7.00;;;7.70;99.90;;;;;;5076473;28;20081;-73
2023/04/02 00:15:58;;;;;;;10.32;7.22;;;7.60;99.90;;;;;;5093940;28;20054;-73
2023/04/02 00:18:25;;;;;;;8.13;6.40;;;7.60;99.90;;;;;;5094252;28;20028;-73
2023/04/02 00:21:08;;;;;;;8.80;6.65;;;7.50;99.90;;;;;;5093714;28;20032;-73
2023/04/02 00:23:42;;;;;;;8.80;6.15;;;7.50;99.90;;;;;;5093690;28;20020;-73
2023/04/02 00:26:24;;;;;;;8.80;5.63;;;7.60;99.90;;;;;;5094422;28;20031;-73
2023/04/02 00:28:51;;;;;;;9.55;6.60;;;7.70;99.90;;;;;;5076039;28;20413;-73
2023/04/02 00:31:18;;;;;;;8.07;6.93;;;7.60;99.90;;;;;;5093852;28;20020;-73
2023/04/02 00:33:45;;;;;;;8.93;7.15;;;7.50;99.90;;;;;;5075729;28;20043;-73
2023/04/02 00:36:11;;;;;;;9.48;7.10;;;7.50;99.90;;;;;;5075403;28;20126;-73
2023/04/02 00:38:42;;;;;;;9.23;6.65;;;7.50;99.90;;;;;;5093305;28;20503;-73
2023/04/02 00:41:15;;;;;;;7.88;6.78;;;7.50;99.90;;;;;;5093842;28;20020;-73
2023/04/02 00:43:45;;;;;;;7.40;6.10;;;7.70;99.90;;;;;;5075955;28;20032;-73
2023/04/02 00:46:15;;;;;;;7.07;5.80;;;7.80;99.90;;;;;;5076065;28;20413;-73
2023/04/02 00:48:53;;;;;;;7.68;6.10;;;7.70;99.90;;;;;;5094309;28;20027;-74
2023/04/02 00:51:23;;;;;;;8.40;6.10;;;7.80;99.90;;;;;;5093413;28;20028;-73
2023/04/02 00:53:52;;;;;;;8.50;5.70;;;7.90;99.90;;;;;;5093645;28;20219;-73
2023/04/02 00:56:26;;;;;;;7.13;5.82;;;7.90;99.90;;;;;;5075669;28;20051;-73
2023/04/02 00:58:55;;;;;;;7.72;6.25;;;7.90;99.90;;;;;;5093312;28;20032;-73
2023/04/02 01:01:28;;;;;;;8.75;5.97;;;7.90;99.90;;;;;;5093491;28;20031;-72
2023/04/02 01:04:04;;;;;;;7.15;5.97;;;7.90;99.90;;;;;;5092952;28;20105;-73
2023/04/02 01:06:34;;;;;;;7.40;5.85;;;8.00;99.90;;;;;;5075509;28;20123;-73
2023/04/02 01:09:20;;;;;;;6.80;5.90;;;7.90;99.90;;;;;;5093490;28;20024;-73
2023/04/02 01:11:52;;;;;;;7.28;5.25;;;7.90;99.90;;;;;;5093180;28;20035;-73
2023/04/02 01:14:28;;;;;;;6.00;5.30;;;7.80;99.90;;;;;;5092969;28;20119;-73
2023/04/02 01:16:53;;;;;;;8.63;6.85;;;7.60;99.90;;;;;;5093171;28;20081;-73
2023/04/02 01:19:41;;;;;;;7.95;5.95;;;7.60;99.90;;;;;;5093430;28;20024;-73
2023/04/02 01:22:12;;;;;;;9.30;6.32;;;7.50;99.90;;;;;;5093586;28;20344;-74
2023/04/02 01:24:38;;;;;;;9.57;6.07;;;7.50;99.90;;;;;;5093107;28;20028;-73
2023/04/02 01:27:11;;;;;;;8.32;5.65;;;7.50;99.90;;;;;;5075337;28;20028;-73
2023/04/02 01:29:40;;;;;;;10.95;6.05;;;7.50;99.90;;;;;;5074886;28;20028;-72
2023/04/02 01:32:10;;;;;;;7.90;5.72;;;7.50;99.90;;;;;;5097604;28;20089;-73
2023/04/02 01:34:36;;;;;;;9.02;5.80;;;7.50;99.90;;;;;;5078990;28;20028;-74
2023/04/02 01:37:27;;;;;;;7.82;5.13;;;7.50;99.90;;;;;;5097202;28;20086;-73
2023/04/02 01:40:16;;;;;;;6.25;5.13;;;7.50;99.90;;;;;;5097376;28;20062;-73
2023/04/02 01:42:56;;;;;;;6.45;5.07;;;7.40;99.90;;;;;;5078906;28;20077;-74
2023/04/02 01:45:24;;;;;;;6.93;5.63;;;7.40;99.90;;;;;;5096660;28;20055;-73
2023/04/02 01:47:50;;;;;;;8.77;5.38;;;7.30;99.90;;;;;;5097337;28;20035;-73
2023/04/02 01:50:23;;;;;;;6.68;5.38;;;7.30;99.90;;;;;;5097187;28;20096;-73
2023/04/02 01:52:53;;;;;;;6.30;5.38;;;7.40;99.90;;;;;;5078533;28;20469;-73
2023/04/02 01:55:38;;;;;;;6.85;5.63;;;7.50;99.90;;;;;;5096758;28;20050;-73
2023/04/02 01:58:04;;;;;;;5.75;5.25;;;7.50;99.90;;;;;;5079119;28;20416;-73
2023/04/02 02:00:33;;;;;;;8.20;6.20;;;7.60;99.90;;;;;;5097013;28;20110;-73
2023/04/02 02:03:00;;;;;;;8.70;6.30;;;7.50;99.90;;;;;;5096356;28;20046;-73
2023/04/02 02:05:27;;;;;;;9.55;6.10;;;7.40;99.90;;;;;;5077977;28;20085;-73
2023/04/02 02:07:55;;;;;;;7.15;5.50;;;7.50;99.90;;;;;;5096619;28;20032;-73
2023/04/02 02:10:37;;;;;;;9.30;5.72;;;7.60;99.90;;;;;;5096590;28;20024;-73
2023/04/02 02:13:03;;;;;;;10.65;6.47;;;7.60;99.90;;;;;;5096300;28;20020;-73
2023/04/02 02:15:32;;;;;;;6.65;5.90;;;7.80;99.90;;;;;;5078672;28;20117;-74
2023/04/02 02:18:02;;;;;;;7.65;6.50;;;7.70;99.90;;;;;;5096367;28;20028;-73
2023/04/02 02:20:29;;;;;;;6.90;6.15;;;7.70;99.90;;;;;;5096960;28;20092;-73
2023/04/02 02:22:56;;;;;;;11.77;8.18;;;7.80;99.90;;;;;;5078213;28;20562;-74
2023/04/02 02:25:26;;;;;;;14.27;10.27;;;7.70;99.90;;;;;;5096002;28;20107;-73
2023/04/02 02:28:22;;;;;;;12.02;9.45;;;7.60;99.90;;;;;;5096248;28;20031;-73
2023/04/02 02:30:52;;;;;;;13.00;9.82;;;7.50;99.90;;;;;;5096189;28;20114;-73
2023/04/02 02:33:50;;;;;;;14.07;9.30;;;7.30;99.90;;;;;;5096010;28;20024;-73
2023/04/02 02:36:32;;;;;;;12.70;9.05;;;7.30;99.90;;;;;;5076455;28;20044;-73
2023/04/02 02:39:16;;;;;;;11.50;9.98;;;7.30;99.90;;;;;;5077803;28;20027;-73
2023/04/02 02:42:01;;;;;;;13.60;9.27;;;7.30;99.90;;;;;;5095854;28;20060;-73
2023/04/02 02:44:31;;;;;;;12.63;9.25;;;7.40;99.90;;;;;;5096064;28;20099;-73
2023/04/02 02:47:01;;;;;;;12.13;8.68;;;7.40;99.90;;;;;;5095792;28;20020;-73
2023/04/02 02:49:31;;;;;;;11.18;8.43;;;7.50;99.90;;;;;;5060890;28;20127;-73
2023/04/02 02:52:14;;;;;;;12.63;8.23;;;7.50;99.90;;;;;;5096055;28;20032;-73
2023/04/02 02:54:46;;;;;;;12.65;7.20;;;7.40;99.90;;;;;;5095725;28;20036;-73
2023/04/02 02:57:21;;;;;;;9.45;7.13;;;7.30;99.90;;;;;;5095981;28;20085;-73
2023/04/02 02:59:47;;;;;;;12.68;6.70;;;7.30;99.90;;;;;;5077441;28;20081;-73
2023/04/02 03:02:15;;;;;;;10.45;6.70;;;7.40;99.90;;;;;;5077523;28;20028;-73
2023/04/02 03:04:45;;;;;;;10.02;7.05;;;7.20;99.90;;;;;;5095441;28;20035;-73
2023/04/02 03:07:12;;;;;;;8.10;6.30;;;6.90;99.90;;;;;;5095244;28;20032;-73
2023/04/02 03:09:45;;;;;;;8.93;6.53;;;6.90;99.90;;;;;;5095386;28;20333;-72
2023/04/02 03:12:43;;;;;;;7.07;5.97;;;6.90;99.90;;;;;;5095457;28;20020;-74
2023/04/02 03:15:14;;;;;;;8.65;5.68;;;7.00;99.90;;;;;;5039451;28;20048;-73
2023/04/02 03:17:52;;;;;;;7.47;5.22;;;7.10;99.90;;;;;;5095264;28;20024;-73
2023/04/02 03:20:25;;;;;;;12.15;6.85;;;7.10;99.90;;;;;;5077047;28;20051;-73
2023/04/02 03:23:11;;;;;;;;;;;7.10;99.90;;;;;;5095644;28;20452;-73
2023/04/02 03:25:47;;;;;;;7.78;5.50;;;7.10;99.90;;;;;;5095097;28;20386;-73
2023/04/02 03:28:19;;;;;;;7.18;5.85;;;7.00;99.90;;;;;;5095059;28;20028;-73
2023/04/02 03:30:53;;;;;;;8.50;5.70;;;7.00;99.90;;;;;;5095079;28;20102;-73
2023/04/02 03:33:36;;;;;;;8.60;6.10;;;6.90;99.90;;;;;;5095218;28;20494;-73
2023/04/02 03:36:11;;;;;;;;;;;6.90;99.90;;;;;;5094685;28;20134;-73
2023/04/02 03:38:51;;;;;;;8.35;6.78;;;6.90;99.90;;;;;;5095046;28;20333;-73
2023/04/02 03:41:49;;;;;;;7.85;6.30;;;6.90;99.90;;;;;;5076941;28;20029;-73
2023/04/02 03:44:45;;;;;;;11.75;6.85;;;6.90;99.90;;;;;;5094739;28;20056;-74
2023/04/02 03:47:17;;;;;;;8.77;6.40;;;6.90;99.90;;;;;;5094433;28;20464;-73
2023/04/02 03:50:06;;;;;;;10.48;7.30;;;6.80;99.90;;;;;;5094908;28;20031;-73
2023/04/02 03:52:36;;;;;;;11.65;7.18;;;6.80;99.90;;;;;;5093239;28;20032;-73
2023/04/02 03:55:14;;;;;;;8.75;6.50;;;6.80;99.90;;;;;;5093984;28;20387;-73
2023/04/02 03:57:45;;;;;;;9.05;6.65;;;6.90;99.90;;;;;;5094516;28;20127;-73
2023/04/02 04:00:26;;;;;;;10.43;6.97;;;6.90;99.90;;;;;;5094409;28;20024;-73
2023/04/02 04:02:53;;;;;;;7.93;6.93;;;6.80;99.90;;;;;;5076594;28;20372;-73
2023/04/02 04:05:33;;;;;;;10.25;7.32;;;6.70;99.90;;;;;;5094247;28;20085;-73
2023/04/02 04:08:06;;;;;;;8.77;7.00;;;6.70;99.90;;;;;;5076698;28;20084;-73
2023/04/02 04:10:34;;;;;;;9.40;7.30;;;6.70;99.90;;;;;;5094195;28;20028;-73
2023/04/02 04:13:10;;;;;;;8.95;7.40;;;6.70;99.90;;;;;;5094282;28;20035;-73
2023/04/02 04:15:41;;;;;;;10.25;7.88;;;6.80;99.90;;;;;;5075680;28;20028;-73
2023/04/02 04:18:28;;;;;;;10.52;7.10;;;7.00;99.90;;;;;;5075804;28;20032;-73
2023/04/02 04:21:04;;;;;;;12.65;8.23;;;6.90;99.90;;;;;;5075522;28;20028;-74
2023/04/02 04:23:32;;;;;;;13.13;8.35;;;7.00;99.90;;;;;;5075506;28;20027;-73
2023/04/02 04:26:10;;;;;;;11.25;7.53;;;7.00;99.90;;;;;;5075640;28;20035;-74
2023/04/02 04:28:47;;;;;;;14.27;8.27;;;7.20;99.90;;;;;;5075683;28;20032;-73
2023/04/02 04:31:20;;;;;;;10.68;7.72;;;7.20;99.90;;;;;;5093871;28;20095;-73
2023/04/02 04:33:49;;;;;;;;;;;7.10;99.90;;;;;;5076089;28;20063;-73
2023/04/02 04:36:27;;;;;;;11.38;6.78;;;7.10;99.90;;;;;;5093342;28;19915;-73
2023/04/02 04:38:58;;;;;;;15.27;8.13;;;7.20;99.90;;;;;;5076043;28;20032;-73
2023/04/02 04:41:37;;;;;;;10.30;6.65;;;7.20;99.90;;;;;;5059648;28;20111;-73
2023/04/02 04:44:12;;;;;;;7.30;5.63;;;7.10;99.90;;;;;;5093934;28;20032;-73
2023/04/02 04:46:44;;;;;;;9.43;6.40;;;7.10;99.90;;;;;;5075326;28;20024;-73
2023/04/02 04:49:45;;;;;;;12.45;5.95;;;7.20;99.90;;;;;;5075588;28;20058;-74
2023/04/02 04:52:33;;;;;;;8.80;5.55;;;7.10;99.90;;;;;;5093778;28;20035;-74
2023/04/02 04:54:59;;;;;;;7.60;4.60;;;6.90;99.90;;;;;;5093632;28;20024;-73
2023/04/02 04:57:35;;;;;;;8.85;4.45;;;6.70;99.90;;;;;;5093673;28;20084;-75
2023/04/02 05:00:11;;;;;;;7.55;3.97;;;6.70;99.90;;;;;;5093138;28;20024;-74
2023/04/02 05:02:51;;;;;;;7.55;3.60;;;6.70;99.90;;;;;;5075890;28;20391;-74
2023/04/02 05:05:28;;;;;;;9.25;3.00;;;6.80;99.90;;;;;;5074155;28;20046;-75
2023/04/02 05:08:14;;;;;;;8.68;3.42;;;6.70;99.90;;;;;;5093316;28;20016;-74
2023/04/02 05:11:03;;;;;;;5.25;3.00;;;6.60;99.90;;;;;;5093254;28;20024;-74
2023/04/02 05:13:46;;;;;;;7.30;3.35;;;6.60;99.90;;;;;;5093269;28;20032;-74
2023/04/02 05:16:44;;;;;;;9.07;3.42;;;6.40;99.90;;;;;;5093046;28;20060;-74
2023/04/02 05:19:26;;;;;;;6.32;2.80;;;6.40;99.90;;;;;;5074951;28;20114;-75
2023/04/02 05:22:18;;;;;;;6.60;2.97;;;6.40;99.90;;;;;;5093150;28;20040;-74
2023/04/02 05:25:06;;;;;;;6.05;2.47;;;6.50;99.90;;;;;;5075355;28;20545;-73
2023/04/02 05:27:56;;;;;;;7.97;2.65;;;6.30;99.90;;;;;;5093263;28;20024;-74
2023/04/02 05:30:21;;;;;;;5.90;2.33;;;6.00;99.90;;;;;;5093243;28;20458;-74
2023/04/02 05:32:56;;;;;;;7.85;2.33;;;5.80;99.90;;;;;;5093056;28;20059;-73
2023/04/02 05:35:27;;;;;;;6.63;2.28;;;5.80;99.90;;;;;;5092666;28;20028;-74
2023/04/02 05:37:53;;;;;;;5.70;2.28;;;5.90;99.90;;;;;;5093483;28;20478;-74
2023/04/02 05:40:37;;;;;;;4.93;1.92;;;5.80;99.90;;;;;;5058358;28;20115;-73
2023/04/02 05:43:12;;;;;;;8.35;2.08;;;5.70;99.90;;;;;;5092887;28;20021;-74
2023/04/02 05:45:40;;;;;;;4.85;1.90;;;5.80;99.90;;;;;;5093225;28;20036;-74
2023/04/02 05:48:42;;;;;;;7.47;2.15;;;6.00;99.90;;;;;;5092913;28;20115;-74
2023/04/02 05:51:15;;;;;;;4.18;1.63;;;5.90;99.90;;;;;;5093230;28;20020;-74
2023/04/02 05:53:52;;;;;;;5.78;1.92;;;5.90;99.90;;;;;;5093095;28;20101;-73
2023/04/02 05:56:42;;;;;;;6.22;1.73;;;6.00;99.90;;;;;;5092784;28;20475;-74
2023/04/02 05:59:20;;;;;;;3.97;1.23;;;6.00;99.90;;;;;;5092772;28;20035;-74
2023/04/02 06:01:52;;;;;;;5.68;1.50;;;6.10;99.90;;;;;;5092926;28;20020;-73
2023/04/02 06:04:30;;;;;;;4.65;1.50;;;6.00;99.90;;;;;;5092830;28;20031;-73
2023/04/02 06:07:00;;;;;;;6.43;1.33;;;5.90;99.90;;;;;;5074906;28;20121;-74
2023/04/02 06:09:26;;;;;;;7.32;2.03;;;5.70;99.90;;;;;;5092318;28;20031;-74
2023/04/02 06:12:13;;;;;;;5.70;1.65;;;5.50;99.90;;;;;;5092704;28;20356;-74
2023/04/02 06:14:38;;;;;;;5.40;1.40;;;5.50;99.90;;;;;;5092761;28;20036;-74
2023/04/02 06:17:04;;;;;;;7.85;1.25;;;5.70;99.90;;;;;;5076422;28;20036;-73
2023/04/02 06:19:36;;;;;;;6.40;1.20;;;5.70;99.90;;;;;;5096128;28;20456;-76
2023/04/02 06:22:25;;;;;;;5.43;1.15;;;5.60;99.90;;;;;;5078081;28;20058;-83
2023/04/02 06:24:58;;;;;;;5.13;1.42;;;5.50;99.90;;;;;;5078238;28;20028;-82
2023/04/02 06:27:25;;;;;;;4.05;1.25;;;5.50;99.90;;;;;;5096318;28;20146;-84
2023/04/02 06:29:54;;;;;;;3.85;1.10;;;5.40;99.90;;;;;;5077696;28;20032;-83
2023/04/02 06:32:24;;;;;;;3.22;1.00;;;5.50;99.90;;;;;;5077508;28;20032;-83
2023/04/02 06:34:50;;;;;;;3.72;0.90;;;5.40;99.90;;;;;;5078065;28;20090;-82
2023/04/02 06:37:27;;;;;;;3.75;1.15;;;5.40;99.90;;;;;;5077770;28;20052;-83
2023/04/02 06:39:53;;;;;;;7.13;1.33;;;5.50;99.90;;;;;;5077692;28;20028;-79
2023/04/02 06:42:25;;;;;;;6.20;1.20;;;5.40;99.90;;;;;;5077770;28;20025;-81
2023/04/02 06:44:51;;;;;;;7.20;1.17;;;5.40;99.90;;;;;;5078036;28;20351;-83
2023/04/02 06:47:29;;;;;;;5.03;1.27;;;5.30;99.90;;;;;;5077331;28;20111;-83
2023/04/02 06:49:57;;;;;;;3.45;1.10;;;5.30;99.90;;;;;;5078228;28;20024;-76
2023/04/02 06:52:35;;;;;;;4.95;1.20;;;5.30;99.90;;;;;;5077328;28;20036;-77
2023/04/02 06:55:16;;;;;;;6.15;1.77;;;5.40;99.90;;;;;;5095379;28;20469;-78
2023/04/02 06:57:42;;;;;;;2.88;0.80;;;5.50;99.90;;;;;;5096052;28;20038;-79
2023/04/02 07:00:35;;;;;;;2.95;0.90;;;5.70;99.90;;;;;;5061001;28;20036;-81
2023/04/02 07:03:04;;;;;;;;;;;5.80;99.90;;;;;;5096263;28;20020;-78
2023/04/02 07:05:30;;;;;;;5.07;1.30;;;5.90;99.90;;;;;;5095417;28;19904;-78
2023/04/02 07:07:56;;;;;;;7.15;1.50;;;6.00;99.90;;;;;;5077499;28;20098;-77
2023/04/02 07:10:21;;;;;;;7.57;1.30;;;5.80;99.90;;;;;;5077588;28;20431;-78
2023/04/02 07:12:47;;;;;;;3.75;1.13;;;5.60;99.90;;;;;;5077712;28;20081;-79
2023/04/02 07:15:18;;;;;;;3.70;0.82;;;5.60;99.90;;;;;;5060090;28;20040;-78
2023/04/02 07:17:45;;;;;;;10.38;1.27;;;5.70;99.90;;;;;;5094943;28;20043;-77
2023/04/02 07:20:37;;;;;;;3.05;0.80;;;5.80;99.90;;;;;;5076911;28;20384;-78
2023/04/02 07:23:03;;;;;;;5.97;1.67;;;5.90;99.90;;;;;;5090220;28;20111;-78
2023/04/02 07:25:29;;;;;;;4.65;1.90;;;5.80;99.90;;;;;;5094778;28;20051;-80
2023/04/02 07:27:55;;;;;;;5.22;1.50;;;5.70;99.90;;;;;;5094095;28;20013;-85
2023/04/02 07:30:21;;;;;;;5.00;1.52;;;5.60;99.90;;;;;;5076980;28;20138;-82
2023/04/02 07:32:47;;;;;;;4.05;1.55;;;5.70;99.90;;;;;;5099142;28;20016;-80
2023/04/02 07:35:13;;;;;;;7.38;2.22;;;5.90;99.90;;;;;;5083527;28;20370;-82
2023/04/02 07:37:39;;;;;;;7.68;2.28;;;6.00;99.90;;;;;;5079287;28;20080;-86
2023/04/02 07:40:23;;;;;;;6.80;2.08;;;6.10;99.90;;;;;;5076516;28;20428;-83
2023/04/02 07:42:49;;;;;;;7.43;1.90;;;6.00;99.90;;;;;;5076896;28;20039;-81
2023/04/02 07:45:15;;;;;;;8.57;2.00;;;5.70;99.90;;;;;;5076509;28;20389;-83
2023/04/02 07:47:41;;;;;;;6.63;1.95;;;5.60;99.90;;;;;;5076524;28;20055;-83
2023/04/02 07:50:07;;;;;;;5.15;1.83;;;5.50;99.90;;;;;;5059837;28;20111;-80
2023/04/02 07:52:37;;;;;;;6.80;2.00;;;5.60;99.90;;;;;;5076092;28;20356;-83
2023/04/02 07:55:04;;;;;;;8.07;1.75;;;5.70;99.90;;;;;;5094656;28;20504;-80
2023/04/02 07:57:29;;;;;;;7.53;1.70;;;5.70;99.90;;;;;;5076153;28;20024;-77
2023/04/02 07:59:55;;;;;;;5.40;1.90;;;5.60;99.90;;;;;;5075954;28;20036;-77
2023/04/02 08:02:22;;;;;;;5.25;1.90;;;5.70;99.90;;;;;;5094032;28;20036;-77
2023/04/02 08:04:50;;;;;;;6.90;2.00;;;5.80;99.90;;;;;;5094589;28;20373;-77
2023/04/02 08:07:16;;;;;;;5.93;2.20;;;6.00;99.90;;;;;;5094522;28;20039;-77
2023/04/02 08:09:41;;;;;;;7.47;2.40;;;6.10;99.90;;;;;;5076408;28;20024;-77
2023/04/02 08:12:11;;;;;;;6.05;2.05;;;6.00;99.90;;;;;;5094176;28;20024;-77
2023/04/02 08:14:37;;;;;;;8.88;1.90;;;5.80;99.90;;;;;;5093917;28;20480;-74
2023/04/02 08:17:02;;;;;;;5.40;1.90;;;5.50;99.90;;;;;;5075751;28;20035;-75
2023/04/02 08:19:28;;;;;;;5.68;2.22;;;5.50;99.90;;;;;;5075802;28;20529;-75
2023/04/02 08:21:55;;;;;;;3.35;2.10;;;5.50;99.90;;;;;;5076178;28;20028;-77
2023/04/02 08:24:21;;;;;;;5.25;2.40;;;5.60;99.90;;;;;;5093904;28;20028;-77
2023/04/02 08:26:48;;;;;;;5.57;2.08;;;5.60;99.90;;;;;;5093486;28;20020;-76
2023/04/02 08:29:14;;;;;;;3.38;1.50;;;5.60;99.90;;;;;;5093591;28;20039;-78
2023/04/02 08:31:39;;;;;;;4.53;1.70;;;5.50;99.90;;;;;;5059331;28;20546;-77
2023/04/02 08:34:05;;;;;;;5.45;2.53;;;5.30;99.90;;;;;;5059505;28;20074;-77
2023/04/02 08:36:37;;;;;;;5.25;1.88;;;5.40;99.90;;;;;;5075295;28;20056;-77
2023/04/02 08:39:04;;;;;;;4.45;1.83;;;5.60;99.90;;;;;;5093860;28;20025;-77
2023/04/02 08:41:37;;;;;;;5.97;1.90;;;5.70;99.90;;;;;;5075234;28;20028;-77
2023/04/02 08:44:35;;;;;;;5.10;1.95;;;5.70;99.90;;;;;;5093478;28;20046;-77
2023/04/02 08:47:08;;;;;;;6.80;2.22;;;5.70;99.90;;;;;;5093983;28;20027;-77
2023/04/02 08:49:36;;;;;;;;;;;5.70;99.90;;;;;;5076634;28;20408;-77
2023/04/02 08:52:03;;;;;;;6.30;2.08;;;5.90;99.90;;;;;;5093323;28;20007;-78
2023/04/02 08:54:33;;;;;;;5.63;2.42;;;5.90;99.90;;;;;;5093188;28;20111;-77
2023/04/02 08:57:11;;;;;;;7.30;2.25;;;6.00;99.90;;;;;;5075778;28;20360;-77
2023/04/02 08:59:42;;;;;;;5.95;2.28;;;5.70;99.90;;;;;;5093266;28;20495;-78
2023/04/02 09:02:22;;;;;;;7.78;1.85;;;5.70;99.90;;;;;;5093595;28;20031;-78
2023/04/02 09:04:49;;;;;;;6.95;1.98;;;5.80;99.90;;;;;;5075421;28;20128;-76
2023/04/02 09:07:16;;;;;;;7.60;2.10;;;5.80;99.90;;;;;;5092932;28;20036;-78
2023/04/02 09:09:45;;;;;;;4.60;1.90;;;5.90;99.90;;;;;;5093331;28;20364;-78
2023/04/02 09:12:27;;;;;;;5.13;1.70;;;5.90;99.90;;;;;;5094878;28;20024;-82
2023/04/02 09:15:12;;;;;;;7.10;1.80;;;6.20;99.90;;;;;;5078307;28;20165;-79
2023/04/02 09:17:38;;;;;;;5.88;1.60;;;6.40;99.90;;;;;;5093346;28;20307;-79
2023/04/02 09:20:28;;;;;;;5.38;1.73;;;6.50;99.90;;;;;;5074722;28;20032;-78
2023/04/02 09:22:55;;;;;;;5.93;1.77;;;6.60;99.90;;;;;;5076148;28;20147;-79
2023/04/02 09:25:28;;;;;;;5.57;1.60;;;6.90;99.90;;;;;;5093552;28;20028;-79
2023/04/02 09:27:55;;;;;;;;;;;7.00;99.90;;;;;;5093942;28;20032;-77
2023/04/02 09:30:30;;;;;;;4.43;1.58;;;7.10;99.90;;;;;;5074493;28;19911;-78
2023/04/02 09:33:01;;;;;;;5.45;1.80;;;7.10;99.70;;;;;;5075275;28;20459;-78
2023/04/02 09:35:31;;;;;;;4.72;1.25;;;6.70;99.40;;;;;;5058755;28;20043;-78
2023/04/02 09:38:09;;;;;;;5.93;1.20;;;6.50;99.90;;;;;;5070800;28;20064;-78
2023/04/02 09:40:53;;;;;;;4.47;1.20;;;6.50;99.90;;;;;;5073164;28;20033;-78
2023/04/02 09:43:36;;;;;;;4.85;1.00;;;6.50;99.90;;;;;;5072570;28;20020;-78
2023/04/02 09:46:14;;;;;;;3.72;1.13;;;6.30;99.90;;;;;;5072914;28;20032;-79
2023/04/02 09:48:45;;;;;;;4.05;1.02;;;6.40;99.90;;;;;;5072847;28;20039;-80
2023/04/02 09:51:20;;;;;;;3.42;1.23;;;6.50;99.90;;;;;;5072611;28;20029;-75
2023/04/02 09:54:02;;;;;;;5.40;1.63;;;6.60;99.90;;;;;;5075627;28;20024;-79
2023/04/02 09:56:30;;;;;;;5.45;1.20;;;6.70;99.90;;;;;;5076498;28;20111;-79
2023/04/02 09:59:11;;;;;;;4.65;1.02;;;6.80;99.90;;;;;;5075309;28;20021;-79
2023/04/02 10:01:39;;;;;;;3.00;0.90;;;6.80;99.90;;;;;;5076610;28;20435;-79
2023/04/02 10:04:34;;;;;;;2.50;1.00;;;6.80;99.30;;;;;;5076255;28;20383;-77
2023/04/02 10:07:02;;;;;;;3.80;1.52;;;6.70;99.90;;;;;;5076884;28;20338;-79
2023/04/02 10:09:36;;;;;;;4.18;1.02;;;6.60;99.80;;;;;;5074693;28;20082;-79
2023/04/02 10:12:05;;;;;;;3.85;1.02;;;6.40;99.80;;;;;;5074973;28;20028;-79
2023/04/02 10:14:44;;;;;;;4.22;0.98;;;6.50;99.90;;;;;;5074631;28;20033;-79
2023/04/02 10:17:23;;;;;;;6.22;1.30;;;6.50;99.90;;;;;;5076430;28;20017;-78
2023/04/02 10:20:16;;;;;;;4.80;0.90;;;6.60;99.30;;;;;;5074493;28;20032;-79
2023/04/02 10:22:43;;;;;;;2.70;0.80;;;6.70;99.40;;;;;;5076071;28;20060;-79
2023/04/02 10:25:17;;;;;;;4.68;0.80;;;7.10;99.80;;;;;;5075920;28;20039;-77
2023/04/02 10:27:49;;;;;;;2.15;0.63;;;7.60;99.20;;;;;;5078522;28;20031;-78
2023/04/02 10:30:46;;;;;;;4.68;0.90;;;7.90;97.40;;;;;;5075240;28;20027;-78
2023/04/02 10:33:28;;;;;;;2.40;0.70;;;8.20;96.60;;;;;;5076158;28;20024;-77
2023/04/02 10:36:00;;;;;;;4.20;1.65;;;8.10;96.90;;;;;;5075933;28;20036;-78
2023/04/02 10:38:53;;;;;;;2.72;1.13;;;8.30;96.80;;;;;;5094531;28;20105;-78
2023/04/02 10:41:30;;;;;;;4.70;0.73;;;8.40;95.60;;;;;;5077808;28;20097;-78
2023/04/02 10:44:01;;;;;;;5.07;1.23;;;8.30;95.10;;;;;;5096010;28;20035;-78
2023/04/02 10:46:38;;;;;;;5.88;1.40;;;8.20;93.90;;;;;;5095468;28;20071;-78
2023/04/02 10:49:07;;;;;;;2.92;1.10;;;8.20;93.50;;;;;;5096501;28;20553;-78
2023/04/02 10:51:54;;;;;;;7.88;1.17;;;8.00;93.60;;;;;;5096264;28;20032;-79
2023/04/02 10:54:35;;;;;;;4.38;1.10;;;7.90;93.50;;;;;;5096083;28;20025;-78
2023/04/02 10:57:15;;;;;;;5.47;0.90;;;7.90;94.10;;;;;;5078106;28;20360;-78
2023/04/02 10:59:52;;;;;;;5.00;1.17;;;8.10;94.10;;;;;;5077972;28;20026;-79
2023/04/02 11:02:40;;;;;;;5.30;0.95;;;8.30;93.60;;;;;;5096359;28;20417;-79
2023/04/02 11:05:26;;;;;;;7.10;1.20;;;8.60;93.10;;;;;;5095700;28;20028;-79
2023/04/02 11:08:08;;;;;;;5.97;1.60;;;9.00;93.10;;;;;;5095922;28;20024;-79
2023/04/02 11:10:38;;;;;;;5.53;1.33;;;9.00;91.70;;;;;;5095786;28;20050;-78
2023/04/02 11:13:21;;;;;;;5.00;1.00;;;8.80;91.70;;;;;;5077239;28;20035;-78
2023/04/02 11:15:47;;;;;;;6.38;0.93;;;9.10;92.10;;;;;;5077611;28;20143;-79
2023/04/02 11:18:26;;;;;;;4.47;1.10;;;9.30;92.20;;;;;;5095671;28;20483;-79
2023/04/02 11:20:58;;;;;;;4.50;0.73;;;9.40;91.50;;;;;;5095200;28;20024;-78
2023/04/02 11:23:30;;;;;;;5.07;1.20;;;9.60;91.70;;;;;;5095668;28;20038;-79
2023/04/02 11:26:29;;;;;;;6.03;1.13;;;9.70;88.50;;;;;;5095314;28;20262;-78
2023/04/02 11:29:17;;;;;;;4.07;0.98;;;9.80;90.10;;;;;;5077206;28;20061;-79
2023/04/02 11:31:44;;;;;;;3.45;0.73;;;10.00;88.70;;;;;;5095597;28;20027;-79
2023/04/02 11:34:44;;;;;;;4.00;0.85;;;10.00;86.30;;;;;;5077869;28;20085;-79
2023/04/02 11:37:37;;;;;;;3.30;0.70;;;10.10;87.90;;;;;;5076788;28;20036;-79
2023/04/02 11:40:15;;;;;;;3.08;0.70;;;10.20;87.30;;;;;;5095351;28;20060;-79
2023/04/02 11:42:49;;;;;;;4.75;0.90;;;10.50;86.20;;;;;;5078025;28;20028;-79
2023/04/02 11:45:25;;;;;;;3.78;0.70;;;10.70;85.40;;;;;;5095151;28;20028;-79
2023/04/02 11:48:00;;;;;;;4.47;0.82;;;10.60;82.50;;;;;;5078043;28;20043;-78
2023/04/02 11:50:38;;;;;;;5.30;1.00;;;10.60;85.30;;;;;;5095182;28;20032;-79
2023/04/02 11:53:09;;;;;;;2.63;0.75;;;10.90;84.30;;;;;;5105064;28;20039;-78
2023/04/02 11:55:37;;;;;;;3.92;0.90;;;11.10;84.70;;;;;;5103604;28;20038;-79
2023/04/02 11:58:21;;;;;;;5.78;0.98;;;11.10;82.30;;;;;;5080279;28;20115;-79
2023/04/02 12:01:42;;;;;;;5.00;0.95;;;11.10;82.00;;;;;;5081692;28;20020;-80
2023/04/02 12:04:20;;;;;;;3.22;0.77;;;11.10;80.10;;;;;;4999378;28;20026;-79
2023/04/02 12:07:16;;;;;;;3.97;0.77;;;11.20;80.70;;;;;;4999378;28;20058;-80
2023/04/02 12:09:58;;;;;;;3.13;0.40;;;11.10;78.70;;;;;;5078700;28;20032;-79
2023/04/02 12:12:30;;;;;;;3.85;0.70;;;11.00;81.80;;;;;;5081926;28;20021;-79
2023/04/02 12:14:57;;;;;;;1.60;0.68;;;11.00;79.60;;;;;;5099847;28;20077;-79
2023/04/02 12:17:36;;;;;;;3.92;1.05;;;10.90;78.50;;;;;;5081355;28;20044;-79
2023/04/02 12:20:06;;;;;;;3.55;0.75;;;10.90;80.70;;;;;;5081298;28;20025;-79
2023/04/02 12:22:35;;;;;;;4.65;1.00;;;11.10;81.50;;;;;;5099571;28;20028;-80
2023/04/02 12:25:28;;;;;;;4.70;1.38;;;11.10;78.50;;;;;;5080904;28;20122;-79
2023/04/02 12:28:06;;;;;;;3.92;0.90;;;11.10;80.30;;;;;;5080812;28;20043;-78
2023/04/02 12:30:32;;;;;;;4.90;0.73;;;11.20;79.80;;;;;;5080599;28;20036;-80
2023/04/02 12:33:22;;;;;;;5.35;0.80;;;11.30;79.60;;;;;;5098189;28;20028;-80
2023/04/02 12:35:53;;;;;;;3.53;0.65;;;11.20;75.60;;;;;;5098507;28;20035;-80
2023/04/02 12:38:21;;;;;;;3.45;0.70;;;11.10;77.90;;;;;;5079092;28;20048;-79
2023/04/02 12:40:57;;;;;;;4.97;0.65;;;11.20;76.30;;;;;;5097495;28;20028;-78
2023/04/02 12:43:32;;;;;;;3.78;0.80;;;11.30;75.60;;;;;;5077865;28;20448;-78
2023/04/02 12:46:04;;;;;;;6.25;1.00;;;11.50;75.90;;;;;;5076770;28;20024;-78
2023/04/02 12:48:30;;;;;;;4.47;0.70;;;11.70;76.30;;;;;;5095990;28;20038;-78
2023/04/02 12:50:57;;;;;;;4.70;0.88;;;11.90;78.00;;;;;;5095942;28;20043;-79
2023/04/02 12:53:35;;;;;;;5.82;1.10;;;12.00;72.10;;;;;;5078116;28;20097;-78
2023/04/02 12:56:02;;;;;;;4.70;0.70;;;11.80;75.00;;;;;;5096163;28;20119;-78
2023/04/02 12:58:38;;;;;;;3.75;0.57;;;11.80;74.80;;;;;;5095283;28;20028;-80
2023/04/02 13:01:19;;;;;;;6.90;1.10;;;11.70;75.00;;;;;;5078082;28;20064;-79
2023/04/02 13:04:01;;;;;;;4.55;0.80;;;11.90;76.20;;;;;;5095355;28;20028;-80
2023/04/02 13:06:29;;;;;;;3.65;0.80;;;12.10;74.50;;;;;;5095757;28;20464;-80
2023/04/02 13:08:56;;;;;;;3.55;0.52;;;12.10;71.20;;;;;;5061755;28;20411;-81
2023/04/02 13:11:22;;;;;;;4.20;0.70;;;11.90;72.40;;;;;;5095204;28;20089;-80
2023/04/02 13:13:49;;;;;;;3.45;0.57;;;11.90;72.80;;;;;;5077551;28;20029;-79
2023/04/02 13:16:17;;;;;;;4.10;1.08;;;12.00;72.60;;;;;;5096184;28;20040;-80
2023/04/02 13:18:47;;;;;;;2.60;0.60;;;11.90;72.60;;;;;;5096680;28;20020;-79
2023/04/02 13:21:16;;;;;;;2.67;0.60;;;11.90;72.80;;;;;;5096304;28;20020;-79
2023/04/02 13:23:42;;;;;;;2.58;0.63;;;12.10;73.70;;;;;;5097373;28;20016;-79
2023/04/02 13:26:16;;;;;;;2.13;0.40;;;12.30;72.80;;;;;;5064509;28;20032;-80
2023/04/02 13:28:43;;;;;;;1.38;0.30;;;12.50;72.50;;;;;;5102208;28;20388;-79
2023/04/02 13:31:15;;;;;;;3.63;0.40;;;12.70;68.30;;;;;;5081810;28;20084;-79
2023/04/02 13:33:41;;;;;;;3.10;0.40;;;12.70;67.10;;;;;;5083236;28;20024;-79